sensor_id;sensor_type;location;lat;lon;timestamp;P1;durP1;ratioP1;P2;durP2;ratioP2
3405;SDS011;10008;48.682;9.016;2023-02-27T00:02:22;9.10;;;6.60;;
3405;SDS011;10008;48.682;9.016;2023-02-27T00:04:48;7.77;;;6.97;;
3405;SDS011;10008;48.682;9.016;2023-02-27T00:07:14;7.07;;;6.37;;
3405;SDS011;10008;48.682;9.016;2023-02-27T00:09:40;7.70;;;7.00;;
3405;SDS011;10008;48.682;9.016;2023-02-27T00:12:06;6.43;;;5.83;;
3405;SDS011;10008;48.682;9.016;2023-02-27T00:14:33;8.83;;;6.43;;
3405;SDS011;10008;48.682;9.016;2023-02-27T00:16:59;6.73;;;6.13;;
3405;SDS011;10008;48.682;9.016;2023-02-27T00:19:25;7.53;;;6.83;;
3405;SDS011;10008;48.682;9.016;2023-02-27T00:21:51;7.53;;;6.77;;
3405;SDS011;10008;48.682;9.016;2023-02-27T00:24:16;8.57;;;7.60;;
3405;SDS011;10008;48.682;9.016;2023-02-27T00:26:42;8.03;;;7.00;;
3405;SDS011;10008;48.682;9.016;2023-02-27T00:29:09;7.30;;;6.60;;
3405;SDS011;10008;48.682;9.016;2023-02-27T00:31:35;7.07;;;6.37;;
3405;SDS011;10008;48.682;9.016;2023-02-27T00:34:01;6.93;;;6.33;;
3405;SDS011;10008;48.682;9.016;2023-02-27T00:36:28;7.20;;;6.50;;
3405;SDS011;10008;48.682;9.016;2023-02-27T00:38:56;7.50;;;6.23;;
3405;SDS011;10008;48.682;9.016;2023-02-27T00:41:23;7.37;;;6.67;;
3405;SDS011;10008;48.682;9.016;2023-02-27T00:43:50;6.70;;;5.70;;
3405;SDS011;10008;48.682;9.016;2023-02-27T00:46:16;6.90;;;6.20;;
3405;SDS011;10008;48.682;9.016;2023-02-27T00:48:43;7.23;;;6.53;;
3405;SDS011;10008;48.682;9.016;2023-02-27T00:51:09;9.80;;;6.73;;
3405;SDS011;10008;48.682;9.016;2023-02-27T00:53:35;7.17;;;6.47;;
3405;SDS011;10008;48.682;9.016;2023-02-27T00:56:00;8.30;;;6.70;;
3405;SDS011;10008;48.682;9.016;2023-02-27T00:58:26;7.30;;;6.60;;
3405;SDS011;10008;48.682;9.016;2023-02-27T01:00:53;9.47;;;7.10;;
3405;SDS011;10008;48.682;9.016;2023-02-27T01:03:18;6.80;;;6.10;;
3405;SDS011;10008;48.682;9.016;2023-02-27T01:05:45;7.37;;;6.57;;
3405;SDS011;10008;48.682;9.016;2023-02-27T01:08:10;7.80;;;6.47;;
3405;SDS011;10008;48.682;9.016;2023-02-27T01:10:36;6.27;;;5.67;;
3405;SDS011;10008;48.682;9.016;2023-02-27T01:13:05;6.77;;;6.17;;
3405;SDS011;10008;48.682;9.016;2023-02-27T01:15:32;7.87;;;6.57;;
3405;SDS011;10008;48.682;9.016;2023-02-27T01:17:57;8.57;;;6.67;;
3405;SDS011;10008;48.682;9.016;2023-02-27T01:20:24;6.83;;;6.23;;
3405;SDS011;10008;48.682;9.016;2023-02-27T01:22:49;7.37;;;6.67;;
3405;SDS011;10008;48.682;9.016;2023-02-27T01:25:15;8.00;;;6.47;;
3405;SDS011;10008;48.682;9.016;2023-02-27T01:27:41;7.20;;;6.50;;
3405;SDS011;10008;48.682;9.016;2023-02-27T01:30:07;6.47;;;5.87;;
3405;SDS011;10008;48.682;9.016;2023-02-27T01:32:36;7.30;;;6.00;;
3405;SDS011;10008;48.682;9.016;2023-02-27T01:35:02;6.37;;;5.73;;
3405;SDS011;10008;48.682;9.016;2023-02-27T01:37:28;6.90;;;6.17;;
3405;SDS011;10008;48.682;9.016;2023-02-27T01:39:54;6.50;;;5.80;;
3405;SDS011;10008;48.682;9.016;2023-02-27T01:42:26;7.30;;;5.77;;
3405;SDS011;10008;48.682;9.016;2023-02-27T01:47:50;6.90;;;6.20;;
3405;SDS011;10008;48.682;9.016;2023-02-27T01:50:20;6.70;;;5.57;;
3405;SDS011;10008;48.682;9.016;2023-02-27T01:52:49;6.83;;;6.00;;
3405;SDS011;10008;48.682;9.016;2023-02-27T01:55:22;6.83;;;5.67;;
3405;SDS011;10008;48.682;9.016;2023-02-27T01:57:50;6.70;;;5.40;;
3405;SDS011;10008;48.682;9.016;2023-02-27T02:00:17;6.50;;;5.73;;
3405;SDS011;10008;48.682;9.016;2023-02-27T02:02:47;7.40;;;5.80;;
3405;SDS011;10008;48.682;9.016;2023-02-27T02:05:20;6.83;;;6.13;;
3405;SDS011;10008;48.682;9.016;2023-02-27T02:07:47;7.40;;;6.30;;
3405;SDS011;10008;48.682;9.016;2023-02-27T02:10:14;6.83;;;6.13;;
3405;SDS011;10008;48.682;9.016;2023-02-27T02:12:41;6.80;;;6.10;;
3405;SDS011;10008;48.682;9.016;2023-02-27T02:15:09;6.57;;;5.97;;
3405;SDS011;10008;48.682;9.016;2023-02-27T02:52:42;7.07;;;5.57;;
3405;SDS011;10008;48.682;9.016;2023-02-27T02:55:16;7.07;;;5.87;;
3405;SDS011;10008;48.682;9.016;2023-02-27T02:57:48;7.40;;;5.30;;
3405;SDS011;10008;48.682;9.016;2023-02-27T03:00:21;7.40;;;5.90;;
3405;SDS011;10008;48.682;9.016;2023-02-27T03:02:57;6.30;;;5.70;;
3405;SDS011;10008;48.682;9.016;2023-02-27T03:05:38;7.43;;;5.80;;
3405;SDS011;10008;48.682;9.016;2023-02-27T03:08:13;8.50;;;5.87;;
3405;SDS011;10008;48.682;9.016;2023-02-27T03:10:47;7.60;;;6.10;;
3405;SDS011;10008;48.682;9.016;2023-02-27T03:13:18;8.73;;;6.30;;
3405;SDS011;10008;48.682;9.016;2023-02-27T03:15:54;6.80;;;6.10;;
3405;SDS011;10008;48.682;9.016;2023-02-27T03:21:58;7.83;;;6.30;;
3405;SDS011;10008;48.682;9.016;2023-02-27T03:24:39;8.37;;;6.40;;
3405;SDS011;10008;48.682;9.016;2023-02-27T03:27:08;8.67;;;5.83;;
3405;SDS011;10008;48.682;9.016;2023-02-27T03:29:40;8.63;;;6.10;;
3405;SDS011;10008;48.682;9.016;2023-02-27T03:33:01;8.00;;;5.87;;
3405;SDS011;10008;48.682;9.016;2023-02-27T03:35:29;9.10;;;5.90;;
3405;SDS011;10008;48.682;9.016;2023-02-27T03:38:16;8.33;;;5.70;;
3405;SDS011;10008;48.682;9.016;2023-02-27T03:41:20;6.87;;;6.10;;
3405;SDS011;10008;48.682;9.016;2023-02-27T03:44:04;10.50;;;6.13;;
3405;SDS011;10008;48.682;9.016;2023-02-27T03:46:49;7.33;;;5.90;;
3405;SDS011;10008;48.682;9.016;2023-02-27T03:49:15;8.47;;;5.77;;
3405;SDS011;10008;48.682;9.016;2023-02-27T03:51:41;12.40;;;5.50;;
3405;SDS011;10008;48.682;9.016;2023-02-27T03:54:14;6.57;;;5.50;;
3405;SDS011;10008;48.682;9.016;2023-02-27T03:56:53;8.50;;;6.30;;
3405;SDS011;10008;48.682;9.016;2023-02-27T03:59:27;7.47;;;6.13;;
3405;SDS011;10008;48.682;9.016;2023-02-27T04:01:55;6.90;;;5.97;;
3405;SDS011;10008;48.682;9.016;2023-02-27T04:04:24;10.37;;;6.07;;
3405;SDS011;10008;48.682;9.016;2023-02-27T04:13:16;9.33;;;6.43;;
3405;SDS011;10008;48.682;9.016;2023-02-27T04:21:42;8.40;;;5.70;;
3405;SDS011;10008;48.682;9.016;2023-02-27T04:24:35;8.70;;;6.03;;
3405;SDS011;10008;48.682;9.016;2023-02-27T04:27:05;10.37;;;6.23;;
3405;SDS011;10008;48.682;9.016;2023-02-27T04:35:16;9.10;;;6.10;;
3405;SDS011;10008;48.682;9.016;2023-02-27T04:40:27;7.60;;;5.87;;
3405;SDS011;10008;48.682;9.016;2023-02-27T04:42:59;7.90;;;6.10;;
3405;SDS011;10008;48.682;9.016;2023-02-27T04:45:28;8.07;;;5.83;;
3405;SDS011;10008;48.682;9.016;2023-02-27T04:48:01;7.63;;;5.70;;
3405;SDS011;10008;48.682;9.016;2023-02-27T04:50:33;8.23;;;5.60;;
3405;SDS011;10008;48.682;9.016;2023-02-27T04:53:18;8.00;;;5.97;;
3405;SDS011;10008;48.682;9.016;2023-02-27T04:55:56;10.27;;;5.80;;
3405;SDS011;10008;48.682;9.016;2023-02-27T04:58:28;8.53;;;6.30;;
3405;SDS011;10008;48.682;9.016;2023-02-27T05:01:00;8.00;;;5.80;;
3405;SDS011;10008;48.682;9.016;2023-02-27T05:03:32;9.53;;;6.10;;
3405;SDS011;10008;48.682;9.016;2023-02-27T05:06:00;10.13;;;5.80;;
3405;SDS011;10008;48.682;9.016;2023-02-27T05:11:27;7.73;;;5.93;;
3405;SDS011;10008;48.682;9.016;2023-02-27T05:14:15;8.20;;;5.77;;
3405;SDS011;10008;48.682;9.016;2023-02-27T05:19:43;8.90;;;6.40;;
3405;SDS011;10008;48.682;9.016;2023-02-27T05:22:27;9.60;;;6.50;;
3405;SDS011;10008;48.682;9.016;2023-02-27T05:25:11;8.40;;;6.23;;
3405;SDS011;10008;48.682;9.016;2023-02-27T05:27:44;13.23;;;7.20;;
3405;SDS011;10008;48.682;9.016;2023-02-27T05:33:07;8.90;;;6.43;;
3405;SDS011;10008;48.682;9.016;2023-02-27T05:35:33;8.67;;;6.40;;
3405;SDS011;10008;48.682;9.016;2023-02-27T05:40:39;8.73;;;6.97;;
3405;SDS011;10008;48.682;9.016;2023-02-27T05:43:14;8.30;;;6.40;;
3405;SDS011;10008;48.682;9.016;2023-02-27T05:45:45;10.83;;;5.93;;
3405;SDS011;10008;48.682;9.016;2023-02-27T05:48:13;11.00;;;6.53;;
3405;SDS011;10008;48.682;9.016;2023-02-27T05:50:49;7.90;;;5.90;;
3405;SDS011;10008;48.682;9.016;2023-02-27T05:53:18;9.80;;;5.90;;
3405;SDS011;10008;48.682;9.016;2023-02-27T05:55:46;8.60;;;6.23;;
3405;SDS011;10008;48.682;9.016;2023-02-27T05:58:17;9.70;;;5.93;;
3405;SDS011;10008;48.682;9.016;2023-02-27T06:03:31;9.67;;;6.70;;
3405;SDS011;10008;48.682;9.016;2023-02-27T06:06:00;11.10;;;6.80;;
3405;SDS011;10008;48.682;9.016;2023-02-27T06:08:28;8.70;;;6.73;;
3405;SDS011;10008;48.682;9.016;2023-02-27T06:10:54;9.70;;;6.97;;
3405;SDS011;10008;48.682;9.016;2023-02-27T06:13:20;9.40;;;6.93;;
3405;SDS011;10008;48.682;9.016;2023-02-27T06:15:47;10.10;;;6.90;;
3405;SDS011;10008;48.682;9.016;2023-02-27T06:18:14;10.20;;;7.80;;
3405;SDS011;10008;48.682;9.016;2023-02-27T06:20:42;8.60;;;6.87;;
3405;SDS011;10008;48.682;9.016;2023-02-27T06:23:08;12.80;;;7.60;;
3405;SDS011;10008;48.682;9.016;2023-02-27T06:25:34;10.20;;;7.27;;
3405;SDS011;10008;48.682;9.016;2023-02-27T06:28:00;8.70;;;6.80;;
3405;SDS011;10008;48.682;9.016;2023-02-27T06:30:26;10.30;;;6.80;;
3405;SDS011;10008;48.682;9.016;2023-02-27T06:32:52;11.97;;;7.20;;
3405;SDS011;10008;48.682;9.016;2023-02-27T06:35:19;9.67;;;6.83;;
3405;SDS011;10008;48.682;9.016;2023-02-27T06:37:45;9.23;;;6.57;;
3405;SDS011;10008;48.682;9.016;2023-02-27T06:40:11;12.03;;;7.30;;
3405;SDS011;10008;48.682;9.016;2023-02-27T06:42:38;9.00;;;6.47;;
3405;SDS011;10008;48.682;9.016;2023-02-27T06:45:04;8.63;;;6.93;;
3405;SDS011;10008;48.682;9.016;2023-02-27T06:47:31;10.13;;;6.63;;
3405;SDS011;10008;48.682;9.016;2023-02-27T06:49:57;10.30;;;7.73;;
3405;SDS011;10008;48.682;9.016;2023-02-27T06:52:22;10.63;;;8.00;;
3405;SDS011;10008;48.682;9.016;2023-02-27T06:54:48;8.60;;;6.90;;
3405;SDS011;10008;48.682;9.016;2023-02-27T06:57:14;10.03;;;7.53;;
3405;SDS011;10008;48.682;9.016;2023-02-27T06:59:40;9.97;;;7.90;;
3405;SDS011;10008;48.682;9.016;2023-02-27T07:02:08;12.93;;;8.43;;
3405;SDS011;10008;48.682;9.016;2023-02-27T07:04:36;10.70;;;7.70;;
3405;SDS011;10008;48.682;9.016;2023-02-27T07:07:02;10.43;;;7.90;;
3405;SDS011;10008;48.682;9.016;2023-02-27T07:09:28;10.43;;;8.10;;
3405;SDS011;10008;48.682;9.016;2023-02-27T07:11:54;10.87;;;8.07;;
3405;SDS011;10008;48.682;9.016;2023-02-27T07:14:19;12.00;;;7.80;;
3405;SDS011;10008;48.682;9.016;2023-02-27T07:16:45;10.17;;;7.43;;
3405;SDS011;10008;48.682;9.016;2023-02-27T07:19:15;14.20;;;10.50;;
3405;SDS011;10008;48.682;9.016;2023-02-27T07:21:42;9.60;;;7.97;;
3405;SDS011;10008;48.682;9.016;2023-02-27T07:24:08;8.93;;;8.03;;
3405;SDS011;10008;48.682;9.016;2023-02-27T07:26:34;10.10;;;8.50;;
3405;SDS011;10008;48.682;9.016;2023-02-27T07:29:00;10.30;;;8.60;;
3405;SDS011;10008;48.682;9.016;2023-02-27T07:31:27;13.93;;;9.07;;
3405;SDS011;10008;48.682;9.016;2023-02-27T07:33:53;12.57;;;9.00;;
3405;SDS011;10008;48.682;9.016;2023-02-27T07:36:19;10.30;;;8.80;;
3405;SDS011;10008;48.682;9.016;2023-02-27T07:38:44;10.80;;;9.20;;
3405;SDS011;10008;48.682;9.016;2023-02-27T07:41:10;12.03;;;10.03;;
3405;SDS011;10008;48.682;9.016;2023-02-27T07:43:36;13.57;;;10.00;;
3405;SDS011;10008;48.682;9.016;2023-02-27T07:46:02;13.03;;;10.53;;
3405;SDS011;10008;48.682;9.016;2023-02-27T07:48:31;12.90;;;10.60;;
3405;SDS011;10008;48.682;9.016;2023-02-27T07:50:58;11.23;;;10.13;;
3405;SDS011;10008;48.682;9.016;2023-02-27T07:53:24;12.53;;;10.60;;
3405;SDS011;10008;48.682;9.016;2023-02-27T07:55:50;12.77;;;10.40;;
3405;SDS011;10008;48.682;9.016;2023-02-27T07:58:16;16.37;;;13.37;;
3405;SDS011;10008;48.682;9.016;2023-02-27T08:00:42;13.30;;;11.90;;
3405;SDS011;10008;48.682;9.016;2023-02-27T08:03:08;12.50;;;11.10;;
3405;SDS011;10008;48.682;9.016;2023-02-27T08:05:34;11.97;;;10.87;;
3405;SDS011;10008;48.682;9.016;2023-02-27T08:08:00;12.47;;;11.27;;
3405;SDS011;10008;48.682;9.016;2023-02-27T08:10:26;12.00;;;10.90;;
3405;SDS011;10008;48.682;9.016;2023-02-27T08:12:52;14.00;;;12.27;;
3405;SDS011;10008;48.682;9.016;2023-02-27T08:15:18;27.43;;;12.40;;
3405;SDS011;10008;48.682;9.016;2023-02-27T08:17:45;12.70;;;11.50;;
3405;SDS011;10008;48.682;9.016;2023-02-27T08:20:11;13.03;;;11.83;;
3405;SDS011;10008;48.682;9.016;2023-02-27T08:22:38;13.53;;;11.47;;
3405;SDS011;10008;48.682;9.016;2023-02-27T08:25:05;13.50;;;12.20;;
3405;SDS011;10008;48.682;9.016;2023-02-27T08:27:34;13.53;;;12.13;;
3405;SDS011;10008;48.682;9.016;2023-02-27T08:30:01;14.60;;;12.50;;
3405;SDS011;10008;48.682;9.016;2023-02-27T08:32:27;14.20;;;12.70;;
3405;SDS011;10008;48.682;9.016;2023-02-27T08:34:53;15.17;;;13.77;;
3405;SDS011;10008;48.682;9.016;2023-02-27T08:37:19;15.30;;;13.60;;
3405;SDS011;10008;48.682;9.016;2023-02-27T08:39:44;16.30;;;14.80;;
3405;SDS011;10008;48.682;9.016;2023-02-27T08:42:10;14.60;;;13.40;;
3405;SDS011;10008;48.682;9.016;2023-02-27T08:44:36;15.67;;;14.17;;
3405;SDS011;10008;48.682;9.016;2023-02-27T08:47:02;14.57;;;13.20;;
3405;SDS011;10008;48.682;9.016;2023-02-27T08:49:27;15.73;;;14.20;;
3405;SDS011;10008;48.682;9.016;2023-02-27T08:51:53;18.90;;;15.80;;
3405;SDS011;10008;48.682;9.016;2023-02-27T08:54:19;16.10;;;14.57;;
3405;SDS011;10008;48.682;9.016;2023-02-27T08:56:45;15.60;;;14.30;;
3405;SDS011;10008;48.682;9.016;2023-02-27T08:59:11;16.00;;;14.60;;
3405;SDS011;10008;48.682;9.016;2023-02-27T09:01:37;16.77;;;14.93;;
3405;SDS011;10008;48.682;9.016;2023-02-27T09:04:04;15.83;;;14.40;;
3405;SDS011;10008;48.682;9.016;2023-02-27T09:06:31;16.17;;;14.80;;
3405;SDS011;10008;48.682;9.016;2023-02-27T09:08:59;16.37;;;14.90;;
3405;SDS011;10008;48.682;9.016;2023-02-27T09:11:25;15.70;;;14.40;;
3405;SDS011;10008;48.682;9.016;2023-02-27T09:13:52;15.67;;;14.30;;
3405;SDS011;10008;48.682;9.016;2023-02-27T09:16:19;15.93;;;14.60;;
3405;SDS011;10008;48.682;9.016;2023-02-27T09:18:46;17.27;;;15.60;;
3405;SDS011;10008;48.682;9.016;2023-02-27T09:21:12;16.27;;;14.80;;
3405;SDS011;10008;48.682;9.016;2023-02-27T09:23:38;15.93;;;14.63;;
3405;SDS011;10008;48.682;9.016;2023-02-27T09:26:04;15.80;;;14.37;;
3405;SDS011;10008;48.682;9.016;2023-02-27T09:28:30;16.40;;;15.00;;
3405;SDS011;10008;48.682;9.016;2023-02-27T09:31:03;15.70;;;14.40;;
3405;SDS011;10008;48.682;9.016;2023-02-27T09:33:30;15.73;;;14.43;;
3405;SDS011;10008;48.682;9.016;2023-02-27T09:35:57;16.17;;;14.77;;
3405;SDS011;10008;48.682;9.016;2023-02-27T09:38:23;15.57;;;14.10;;
3405;SDS011;10008;48.682;9.016;2023-02-27T09:40:50;16.40;;;14.73;;
3405;SDS011;10008;48.682;9.016;2023-02-27T09:43:19;16.07;;;14.57;;
3405;SDS011;10008;48.682;9.016;2023-02-27T09:45:52;16.03;;;14.53;;
3405;SDS011;10008;48.682;9.016;2023-02-27T09:51:06;15.83;;;14.47;;
3405;SDS011;10008;48.682;9.016;2023-02-27T09:53:39;15.50;;;14.20;;
3405;SDS011;10008;48.682;9.016;2023-02-27T10:04:43;15.53;;;14.33;;
3405;SDS011;10008;48.682;9.016;2023-02-27T10:10:08;15.20;;;13.73;;
3405;SDS011;10008;48.682;9.016;2023-02-27T10:15:23;15.60;;;14.13;;
3405;SDS011;10008;48.682;9.016;2023-02-27T10:17:53;16.10;;;14.53;;
3405;SDS011;10008;48.682;9.016;2023-02-27T10:20:32;15.17;;;13.87;;
3405;SDS011;10008;48.682;9.016;2023-02-27T10:23:18;16.20;;;14.80;;
3405;SDS011;10008;48.682;9.016;2023-02-27T10:25:49;15.93;;;14.63;;
3405;SDS011;10008;48.682;9.016;2023-02-27T10:28:17;15.53;;;14.13;;
3405;SDS011;10008;48.682;9.016;2023-02-27T10:30:46;16.63;;;15.13;;
3405;SDS011;10008;48.682;9.016;2023-02-27T10:36:01;15.30;;;13.80;;
3405;SDS011;10008;48.682;9.016;2023-02-27T10:40:53;15.20;;;13.80;;
3405;SDS011;10008;48.682;9.016;2023-02-27T10:43:21;15.10;;;13.80;;
3405;SDS011;10008;48.682;9.016;2023-02-27T10:45:47;15.30;;;13.70;;
3405;SDS011;10008;48.682;9.016;2023-02-27T10:48:13;14.73;;;13.53;;
3405;SDS011;10008;48.682;9.016;2023-02-27T10:50:40;13.93;;;12.83;;
3405;SDS011;10008;48.682;9.016;2023-02-27T10:53:24;14.63;;;13.43;;
3405;SDS011;10008;48.682;9.016;2023-02-27T10:56:06;15.10;;;13.90;;
3405;SDS011;10008;48.682;9.016;2023-02-27T10:58:42;14.80;;;13.40;;
3405;SDS011;10008;48.682;9.016;2023-02-27T11:01:09;14.87;;;13.67;;
3405;SDS011;10008;48.682;9.016;2023-02-27T11:03:37;15.40;;;13.90;;
3405;SDS011;10008;48.682;9.016;2023-02-27T11:06:25;15.27;;;13.73;;
3405;SDS011;10008;48.682;9.016;2023-02-27T11:11:36;15.40;;;14.00;;
3405;SDS011;10008;48.682;9.016;2023-02-27T11:16:46;15.50;;;13.97;;
3405;SDS011;10008;48.682;9.016;2023-02-27T11:19:32;15.30;;;14.00;;
3405;SDS011;10008;48.682;9.016;2023-02-27T11:24:38;15.80;;;14.50;;
3405;SDS011;10008;48.682;9.016;2023-02-27T11:27:16;15.10;;;13.83;;
3405;SDS011;10008;48.682;9.016;2023-02-27T11:30:38;16.30;;;14.80;;
3405;SDS011;10008;48.682;9.016;2023-02-27T11:32:48;15.50;;;14.00;;
3405;SDS011;10008;48.682;9.016;2023-02-27T11:37:50;15.03;;;13.70;;
3405;SDS011;10008;48.682;9.016;2023-02-27T11:40:19;14.63;;;13.43;;
3405;SDS011;10008;48.682;9.016;2023-02-27T11:42:54;15.03;;;13.70;;
3405;SDS011;10008;48.682;9.016;2023-02-27T11:45:35;15.20;;;13.90;;
3405;SDS011;10008;48.682;9.016;2023-02-27T11:48:09;14.97;;;13.77;;
3405;SDS011;10008;48.682;9.016;2023-02-27T11:56:20;14.70;;;13.50;;
3405;SDS011;10008;48.682;9.016;2023-02-27T11:58:56;15.47;;;14.27;;
3405;SDS011;10008;48.682;9.016;2023-02-27T12:01:42;15.60;;;14.27;;
3405;SDS011;10008;48.682;9.016;2023-02-27T12:04:23;15.00;;;13.70;;
3405;SDS011;10008;48.682;9.016;2023-02-27T12:07:01;15.10;;;13.80;;
3405;SDS011;10008;48.682;9.016;2023-02-27T12:09:40;15.83;;;14.43;;
3405;SDS011;10008;48.682;9.016;2023-02-27T12:12:14;14.90;;;13.50;;
3405;SDS011;10008;48.682;9.016;2023-02-27T12:15:29;15.20;;;13.90;;
3405;SDS011;10008;48.682;9.016;2023-02-27T12:20:24;15.37;;;14.07;;
3405;SDS011;10008;48.682;9.016;2023-02-27T12:22:59;15.97;;;14.60;;
3405;SDS011;10008;48.682;9.016;2023-02-27T12:25:38;15.33;;;14.13;;
3405;SDS011;10008;48.682;9.016;2023-02-27T12:31:11;15.00;;;13.80;;
3405;SDS011;10008;48.682;9.016;2023-02-27T12:36:55;15.73;;;14.33;;
3405;SDS011;10008;48.682;9.016;2023-02-27T12:39:25;15.00;;;13.67;;
3405;SDS011;10008;48.682;9.016;2023-02-27T12:50:20;14.73;;;13.40;;
3405;SDS011;10008;48.682;9.016;2023-02-27T12:55:22;14.70;;;13.60;;
3405;SDS011;10008;48.682;9.016;2023-02-27T13:01:14;14.80;;;13.40;;
3405;SDS011;10008;48.682;9.016;2023-02-27T13:03:57;15.60;;;14.30;;
3405;SDS011;10008;48.682;9.016;2023-02-27T13:12:19;15.77;;;14.37;;
3405;SDS011;10008;48.682;9.016;2023-02-27T13:18:06;15.47;;;14.17;;
3405;SDS011;10008;48.682;9.016;2023-02-27T13:25:28;14.90;;;13.70;;
3405;SDS011;10008;48.682;9.016;2023-02-27T13:27:57;14.90;;;13.53;;
3405;SDS011;10008;48.682;9.016;2023-02-27T13:30:33;15.00;;;13.70;;
3405;SDS011;10008;48.682;9.016;2023-02-27T13:35:57;14.43;;;13.33;;
3405;SDS011;10008;48.682;9.016;2023-02-27T13:41:43;13.77;;;12.57;;
3405;SDS011;10008;48.682;9.016;2023-02-27T13:46:31;14.20;;;13.00;;
3405;SDS011;10008;48.682;9.016;2023-02-27T13:54:05;14.90;;;13.47;;
3405;SDS011;10008;48.682;9.016;2023-02-27T13:56:38;14.47;;;13.17;;
3405;SDS011;10008;48.682;9.016;2023-02-27T13:59:12;14.77;;;13.47;;
3405;SDS011;10008;48.682;9.016;2023-02-27T14:01:57;14.70;;;13.40;;
3405;SDS011;10008;48.682;9.016;2023-02-27T14:04:33;14.83;;;13.50;;
3405;SDS011;10008;48.682;9.016;2023-02-27T14:07:03;14.53;;;13.30;;
3405;SDS011;10008;48.682;9.016;2023-02-27T14:09:35;15.37;;;14.07;;
3405;SDS011;10008;48.682;9.016;2023-02-27T14:12:05;15.00;;;13.70;;
3405;SDS011;10008;48.682;9.016;2023-02-27T14:14:50;14.30;;;13.10;;
3405;SDS011;10008;48.682;9.016;2023-02-27T14:20:49;14.83;;;13.60;;
3405;SDS011;10008;48.682;9.016;2023-02-27T14:23:14;14.87;;;13.67;;
3405;SDS011;10008;48.682;9.016;2023-02-27T14:26:13;15.23;;;13.93;;
3405;SDS011;10008;48.682;9.016;2023-02-27T14:28:48;14.87;;;13.53;;
3405;SDS011;10008;48.682;9.016;2023-02-27T14:31:21;15.30;;;14.00;;
3405;SDS011;10008;48.682;9.016;2023-02-27T14:33:59;15.43;;;13.97;;
3405;SDS011;10008;48.682;9.016;2023-02-27T14:36:40;15.73;;;14.33;;
3405;SDS011;10008;48.682;9.016;2023-02-27T14:39:18;15.67;;;14.27;;
3405;SDS011;10008;48.682;9.016;2023-02-27T14:44:57;15.17;;;13.83;;
3405;SDS011;10008;48.682;9.016;2023-02-27T14:47:30;15.63;;;14.23;;
3405;SDS011;10008;48.682;9.016;2023-02-27T14:49:58;15.50;;;14.20;;
3405;SDS011;10008;48.682;9.016;2023-02-27T14:52:30;14.67;;;13.47;;
3405;SDS011;10008;48.682;9.016;2023-02-27T14:55:26;15.70;;;14.17;;
3405;SDS011;10008;48.682;9.016;2023-02-27T14:58:15;14.63;;;13.43;;
3405;SDS011;10008;48.682;9.016;2023-02-27T15:00:44;15.07;;;13.67;;
3405;SDS011;10008;48.682;9.016;2023-02-27T15:05:47;14.10;;;12.93;;
3405;SDS011;10008;48.682;9.016;2023-02-27T15:08:16;13.80;;;12.70;;
3405;SDS011;10008;48.682;9.016;2023-02-27T15:10:45;14.97;;;13.67;;
3405;SDS011;10008;48.682;9.016;2023-02-27T15:13:21;14.73;;;13.33;;
3405;SDS011;10008;48.682;9.016;2023-02-27T15:18:47;14.13;;;12.90;;
3405;SDS011;10008;48.682;9.016;2023-02-27T15:21:20;14.10;;;12.70;;
3405;SDS011;10008;48.682;9.016;2023-02-27T15:23:54;14.37;;;13.17;;
3405;SDS011;10008;48.682;9.016;2023-02-27T15:26:21;13.90;;;12.57;;
3405;SDS011;10008;48.682;9.016;2023-02-27T15:28:48;14.50;;;13.30;;
3405;SDS011;10008;48.682;9.016;2023-02-27T15:31:20;13.77;;;12.57;;
3405;SDS011;10008;48.682;9.016;2023-02-27T15:33:48;14.27;;;12.97;;
3405;SDS011;10008;48.682;9.016;2023-02-27T15:36:18;13.57;;;12.43;;
3405;SDS011;10008;48.682;9.016;2023-02-27T15:38:47;14.00;;;12.80;;
3405;SDS011;10008;48.682;9.016;2023-02-27T15:41:42;14.87;;;13.67;;
3405;SDS011;10008;48.682;9.016;2023-02-27T15:44:11;13.50;;;12.40;;
3405;SDS011;10008;48.682;9.016;2023-02-27T15:46:39;14.60;;;13.20;;
3405;SDS011;10008;48.682;9.016;2023-02-27T15:49:05;14.20;;;12.97;;
3405;SDS011;10008;48.682;9.016;2023-02-27T15:51:31;14.30;;;13.00;;
3405;SDS011;10008;48.682;9.016;2023-02-27T15:53:58;15.50;;;13.07;;
3405;SDS011;10008;48.682;9.016;2023-02-27T15:56:30;14.80;;;13.50;;
3405;SDS011;10008;48.682;9.016;2023-02-27T15:58:57;14.20;;;12.90;;
3405;SDS011;10008;48.682;9.016;2023-02-27T16:01:26;14.63;;;13.20;;
3405;SDS011;10008;48.682;9.016;2023-02-27T16:03:55;14.30;;;12.90;;
3405;SDS011;10008;48.682;9.016;2023-02-27T16:09:04;14.83;;;13.63;;
3405;SDS011;10008;48.682;9.016;2023-02-27T16:11:38;13.70;;;12.60;;
3405;SDS011;10008;48.682;9.016;2023-02-27T16:14:05;14.10;;;12.90;;
3405;SDS011;10008;48.682;9.016;2023-02-27T16:16:54;14.50;;;13.30;;
3405;SDS011;10008;48.682;9.016;2023-02-27T16:19:23;14.10;;;12.90;;
3405;SDS011;10008;48.682;9.016;2023-02-27T16:22:28;14.10;;;12.80;;
3405;SDS011;10008;48.682;9.016;2023-02-27T16:24:47;14.90;;;12.60;;
3405;SDS011;10008;48.682;9.016;2023-02-27T16:27:31;14.10;;;12.80;;
3405;SDS011;10008;48.682;9.016;2023-02-27T16:29:57;13.93;;;12.73;;
3405;SDS011;10008;48.682;9.016;2023-02-27T16:35:07;14.20;;;12.90;;
3405;SDS011;10008;48.682;9.016;2023-02-27T16:37:44;15.17;;;13.83;;
3405;SDS011;10008;48.682;9.016;2023-02-27T16:40:16;14.30;;;13.00;;
3405;SDS011;10008;48.682;9.016;2023-02-27T16:42:44;14.47;;;13.27;;
3405;SDS011;10008;48.682;9.016;2023-02-27T16:45:14;13.83;;;12.73;;
3405;SDS011;10008;48.682;9.016;2023-02-27T16:47:40;13.97;;;12.57;;
3405;SDS011;10008;48.682;9.016;2023-02-27T16:50:14;13.33;;;12.23;;
3405;SDS011;10008;48.682;9.016;2023-02-27T16:52:40;14.20;;;12.90;;
3405;SDS011;10008;48.682;9.016;2023-02-27T16:55:07;13.60;;;12.50;;
3405;SDS011;10008;48.682;9.016;2023-02-27T16:57:33;15.03;;;12.77;;
3405;SDS011;10008;48.682;9.016;2023-02-27T16:59:59;13.70;;;12.30;;
3405;SDS011;10008;48.682;9.016;2023-02-27T17:02:25;14.10;;;12.90;;
3405;SDS011;10008;48.682;9.016;2023-02-27T17:04:51;13.87;;;12.60;;
3405;SDS011;10008;48.682;9.016;2023-02-27T17:07:17;13.33;;;12.13;;
3405;SDS011;10008;48.682;9.016;2023-02-27T17:09:44;14.50;;;13.30;;
3405;SDS011;10008;48.682;9.016;2023-02-27T17:12:11;14.40;;;13.10;;
3405;SDS011;10008;48.682;9.016;2023-02-27T17:14:37;15.33;;;14.03;;
3405;SDS011;10008;48.682;9.016;2023-02-27T17:17:03;14.37;;;13.20;;
3405;SDS011;10008;48.682;9.016;2023-02-27T17:19:29;14.60;;;13.20;;
3405;SDS011;10008;48.682;9.016;2023-02-27T17:21:55;14.70;;;13.40;;
3405;SDS011;10008;48.682;9.016;2023-02-27T17:24:21;15.30;;;13.90;;
3405;SDS011;10008;48.682;9.016;2023-02-27T17:26:46;14.37;;;13.00;;
3405;SDS011;10008;48.682;9.016;2023-02-27T17:29:12;14.30;;;13.00;;
3405;SDS011;10008;48.682;9.016;2023-02-27T17:31:39;13.67;;;12.43;;
3405;SDS011;10008;48.682;9.016;2023-02-27T17:34:06;13.93;;;12.73;;
3405;SDS011;10008;48.682;9.016;2023-02-27T17:36:33;14.40;;;13.20;;
3405;SDS011;10008;48.682;9.016;2023-02-27T17:38:59;14.40;;;13.10;;
3405;SDS011;10008;48.682;9.016;2023-02-27T17:41:26;13.80;;;12.70;;
3405;SDS011;10008;48.682;9.016;2023-02-27T17:43:53;14.27;;;13.03;;
3405;SDS011;10008;48.682;9.016;2023-02-27T17:46:20;14.43;;;13.20;;
3405;SDS011;10008;48.682;9.016;2023-02-27T17:48:47;14.20;;;13.00;;
3405;SDS011;10008;48.682;9.016;2023-02-27T17:51:14;14.50;;;13.30;;
3405;SDS011;10008;48.682;9.016;2023-02-27T17:53:41;14.33;;;13.23;;
3405;SDS011;10008;48.682;9.016;2023-02-27T17:56:08;14.23;;;12.93;;
3405;SDS011;10008;48.682;9.016;2023-02-27T17:58:34;13.70;;;12.60;;
3405;SDS011;10008;48.682;9.016;2023-02-27T18:01:04;14.97;;;13.60;;
3405;SDS011;10008;48.682;9.016;2023-02-27T18:03:30;14.67;;;13.27;;
3405;SDS011;10008;48.682;9.016;2023-02-27T18:05:55;15.30;;;14.00;;
3405;SDS011;10008;48.682;9.016;2023-02-27T18:08:21;14.40;;;13.10;;